createdAt,value
2023-05-04T00:00:13.516Z,5.07
2023-05-04T00:02:42.523Z,5.00
2023-05-04T00:05:12.246Z,4.95
2023-05-04T00:07:41.001Z,4.94
2023-05-04T00:10:10.689Z,4.91
2023-05-04T00:12:39.961Z,4.87
2023-05-04T00:15:09.414Z,4.83
2023-05-04T00:17:39.847Z,4.81
2023-05-04T00:20:10.201Z,4.80
2023-05-04T00:22:38.995Z,4.79
2023-05-04T00:25:08.968Z,4.80
2023-05-04T00:27:37.716Z,4.78
2023-05-04T00:30:07.616Z,4.77
2023-05-04T00:32:36.426Z,4.72
2023-05-04T00:35:07.387Z,4.69
2023-05-04T00:37:36.192Z,4.69
2023-05-04T00:40:05.519Z,4.70
2023-05-04T00:42:34.409Z,4.67
2023-05-04T00:45:03.136Z,4.64
2023-05-04T00:47:32.174Z,4.61
2023-05-04T00:50:01.305Z,4.55
2023-05-04T00:52:31.665Z,4.52
2023-05-04T00:55:02.482Z,4.52
2023-05-04T00:57:31.617Z,4.47
2023-05-04T01:00:00.420Z,4.39
2023-05-04T01:02:29.147Z,4.32
2023-05-04T01:04:57.953Z,4.24
2023-05-04T01:07:39.595Z,4.19
2023-05-04T01:10:13.902Z,4.16
2023-05-04T01:12:48.205Z,4.14
2023-05-04T01:15:17.660Z,4.12
2023-05-04T01:17:46.463Z,4.08
2023-05-04T01:20:16.138Z,4.06
2023-05-04T01:22:47.007Z,4.04
2023-05-04T01:25:16.285Z,4.03
2023-05-04T01:27:54.954Z,4.01
2023-05-04T01:30:30.445Z,3.97
2023-05-04T01:33:01.355Z,3.95
2023-05-04T01:35:31.078Z,3.95
2023-05-04T01:38:01.612Z,3.93
2023-05-04T01:40:30.570Z,3.92
2023-05-04T01:42:59.357Z,3.89
2023-05-04T01:45:28.436Z,3.86
2023-05-04T01:47:57.511Z,3.85
2023-05-04T01:50:26.423Z,3.81
2023-05-04T01:52:55.230Z,3.76
2023-05-04T01:55:25.445Z,3.72
2023-05-04T01:57:54.238Z,3.69
2023-05-04T02:00:23.136Z,3.66
2023-05-04T02:02:51.987Z,3.66
2023-05-04T02:05:21.691Z,3.62
2023-05-04T02:07:50.902Z,3.63
2023-05-04T02:10:19.769Z,3.62
2023-05-04T02:12:50.767Z,3.60
2023-05-04T02:15:19.770Z,3.58
2023-05-04T02:17:49.030Z,3.61
2023-05-04T02:20:17.831Z,3.67
2023-05-04T02:22:47.916Z,3.76
2023-05-04T02:25:16.729Z,3.75
2023-05-04T02:27:45.462Z,3.71
2023-05-04T02:30:16.279Z,3.61
2023-05-04T02:32:45.096Z,3.51
2023-05-04T02:35:14.052Z,3.41
2023-05-04T02:37:42.758Z,3.33
2023-05-04T02:40:12.570Z,3.30
2023-05-04T02:42:41.263Z,3.31
2023-05-04T02:45:11.015Z,3.36
2023-05-04T02:47:41.233Z,3.39
2023-05-04T02:50:10.784Z,3.36
2023-05-04T02:52:39.702Z,3.28
2023-05-04T02:55:09.062Z,3.19
2023-05-04T02:57:37.870Z,3.10
2023-05-04T03:00:08.374Z,3.06
2023-05-04T03:02:37.088Z,3.01
2023-05-04T03:05:07.948Z,2.98
2023-05-04T03:07:36.750Z,2.98
2023-05-04T03:10:06.281Z,2.97
2023-05-04T03:12:35.194Z,2.94
2023-05-04T03:15:04.183Z,2.93
2023-05-04T03:17:33.458Z,2.90
2023-05-04T03:20:02.718Z,2.91
2023-05-04T03:22:34.927Z,2.92
2023-05-04T03:25:04.130Z,2.85
2023-05-04T03:27:32.883Z,2.79
2023-05-04T03:30:01.894Z,2.76
2023-05-04T03:32:30.760Z,2.75
2023-05-04T03:35:00.572Z,2.77
2023-05-04T03:37:31.253Z,2.79
2023-05-04T03:40:01.410Z,2.81
2023-05-04T03:42:30.262Z,2.86
2023-05-04T03:45:13.941Z,2.89
2023-05-04T03:47:42.665Z,2.91
2023-05-04T03:50:13.224Z,2.93
2023-05-04T03:52:42.189Z,2.98
2023-05-04T03:55:14.599Z,3.01
2023-05-04T03:57:43.544Z,3.03
2023-05-04T04:00:13.306Z,3.12
2023-05-04T04:02:48.317Z,3.21
2023-05-04T04:05:21.184Z,3.31
2023-05-04T04:10:40.059Z,3.49
2023-05-04T04:13:08.900Z,3.53
2023-05-04T04:15:37.657Z,3.61
2023-05-04T04:18:06.547Z,3.68
2023-05-04T04:20:35.346Z,3.73
2023-05-04T04:23:04.095Z,3.82
2023-05-04T04:25:32.901Z,3.89
2023-05-04T04:28:02.946Z,3.96
2023-05-04T04:30:31.736Z,4.03
2023-05-04T04:33:00.528Z,4.11
2023-05-04T04:35:29.349Z,4.18
2023-05-04T04:37:58.044Z,4.27
2023-05-04T04:40:27.079Z,4.38
2023-05-04T04:42:56.333Z,4.49
2023-05-04T04:45:26.627Z,4.63
2023-05-04T04:47:55.369Z,4.77
2023-05-04T04:50:24.433Z,4.91
2023-05-04T04:52:53.510Z,5.07
2023-05-04T04:55:23.899Z,5.21
2023-05-04T04:57:54.304Z,5.38
2023-05-04T05:00:24.253Z,5.54
2023-05-04T05:02:55.109Z,5.73
2023-05-04T05:05:24.056Z,5.96
2023-05-04T05:07:53.003Z,6.32
2023-05-04T05:10:22.302Z,6.63
2023-05-04T05:12:51.651Z,6.91
2023-05-04T05:15:20.764Z,7.11
2023-05-04T05:17:49.731Z,7.24
2023-05-04T05:20:19.952Z,7.44
2023-05-04T05:22:48.704Z,7.65
2023-05-04T05:25:17.512Z,7.77
2023-05-04T05:27:46.357Z,7.85
2023-05-04T05:30:15.266Z,7.95
2023-05-04T05:32:50.238Z,8.10
2023-05-04T05:36:35.585Z,8.29
2023-05-04T05:39:06.089Z,8.42
2023-05-04T05:41:35.616Z,8.46
2023-05-04T05:44:04.707Z,8.55
2023-05-04T05:46:34.040Z,8.67
2023-05-04T05:49:03.072Z,8.77
2023-05-04T05:51:32.097Z,8.85
2023-05-04T05:54:01.112Z,8.97
2023-05-04T05:56:31.277Z,9.04
2023-05-04T05:59:00.190Z,9.11
2023-05-04T06:01:28.965Z,9.16
2023-05-04T06:03:57.813Z,9.20
2023-05-04T06:06:29.115Z,9.28
2023-05-04T06:08:58.003Z,9.35
2023-05-04T06:11:28.934Z,9.45
2023-05-04T06:14:01.837Z,9.58
2023-05-04T06:16:41.251Z,9.66
2023-05-04T06:19:15.875Z,9.78
2023-05-04T06:21:53.553Z,9.86
2023-05-04T06:24:23.128Z,9.90
2023-05-04T06:26:52.127Z,9.95
2023-05-04T06:29:22.695Z,10.07
2023-05-04T06:31:54.187Z,10.20
2023-05-04T06:34:27.396Z,10.28
2023-05-04T06:36:58.769Z,10.41
2023-05-04T06:39:33.661Z,10.53
2023-05-04T06:42:04.688Z,10.64
2023-05-04T06:44:42.535Z,10.71
2023-05-04T06:47:15.688Z,10.80
2023-05-04T06:49:46.643Z,10.87
2023-05-04T06:52:17.923Z,10.94
2023-05-04T06:54:49.108Z,11.08
2023-05-04T07:00:22.691Z,11.43
2023-05-04T07:02:54.552Z,11.52
2023-05-04T07:05:24.118Z,11.59
2023-05-04T07:07:53.477Z,11.70
2023-05-04T07:10:22.406Z,11.85
2023-05-04T07:12:51.339Z,11.95
2023-05-04T07:15:21.616Z,12.07
2023-05-04T07:17:50.625Z,12.19
2023-05-04T07:20:23.514Z,12.30
2023-05-04T07:22:57.559Z,12.42
2023-05-04T07:25:26.906Z,12.54
2023-05-04T07:27:55.822Z,12.63
2023-05-04T07:30:28.066Z,12.73
2023-05-04T07:32:56.938Z,12.91
2023-05-04T07:35:25.818Z,13.00
2023-05-04T07:37:56.620Z,13.10
2023-05-04T07:40:26.501Z,13.19
2023-05-04T07:42:56.402Z,13.27
2023-05-04T07:45:26.892Z,13.44
2023-05-04T07:47:58.664Z,13.51
2023-05-04T07:50:27.547Z,13.57
2023-05-04T07:52:56.262Z,13.67
2023-05-04T07:55:26.219Z,13.79
2023-05-04T07:57:55.020Z,13.87
2023-05-04T08:00:25.582Z,13.89
2023-05-04T08:02:54.338Z,13.97
2023-05-04T08:05:23.060Z,14.08
2023-05-04T08:07:51.811Z,14.13
2023-05-04T08:10:20.678Z,14.23
2023-05-04T08:12:49.463Z,14.24
2023-05-04T08:15:18.299Z,14.31
2023-05-04T08:17:48.436Z,14.28
2023-05-04T08:20:17.288Z,14.49
2023-05-04T08:22:46.228Z,14.60
2023-05-04T08:25:15.142Z,14.67
2023-05-04T08:27:43.886Z,14.70
2023-05-04T08:30:13.244Z,14.71
2023-05-04T08:32:42.015Z,14.72
2023-05-04T08:35:12.304Z,14.70
2023-05-04T08:37:41.078Z,14.67
2023-05-04T08:40:10.661Z,14.72
2023-05-04T08:42:40.445Z,14.82
2023-05-04T08:45:10.347Z,14.95
2023-05-04T08:47:42.955Z,14.98
2023-05-04T08:50:13.703Z,15.00
2023-05-04T08:52:47.555Z,15.07
2023-05-04T08:55:18.716Z,15.05
2023-05-04T08:57:48.605Z,15.18
2023-05-04T09:00:19.980Z,15.21
2023-05-04T09:02:50.304Z,15.26
2023-05-04T09:05:20.731Z,15.39
2023-05-04T09:07:51.090Z,15.47
2023-05-04T09:10:20.123Z,15.55
2023-05-04T09:12:48.915Z,15.58
2023-05-04T09:15:19.028Z,15.53
2023-05-04T09:17:58.255Z,15.45
2023-05-04T09:20:28.551Z,15.42
2023-05-04T09:23:07.021Z,15.44
2023-05-04T09:25:47.369Z,15.54
2023-05-04T09:28:16.915Z,15.54
2023-05-04T09:30:46.768Z,15.55
2023-05-04T09:33:16.384Z,15.66
2023-05-04T09:35:46.469Z,15.72
2023-05-04T09:38:27.108Z,15.83
2023-05-04T09:40:55.994Z,15.89
2023-05-04T09:43:25.516Z,15.89
2023-05-04T09:45:54.408Z,15.87
2023-05-04T09:48:27.041Z,15.93
2023-05-04T09:50:59.103Z,16.02
2023-05-04T09:53:29.254Z,16.14
2023-05-04T09:56:08.159Z,16.35
2023-05-04T09:58:37.819Z,16.48
2023-05-04T10:01:07.293Z,16.55
2023-05-04T10:03:36.626Z,16.59
2023-05-04T10:06:09.139Z,16.60
2023-05-04T10:08:38.295Z,16.71
2023-05-04T10:11:08.666Z,16.80
2023-05-04T10:13:37.515Z,16.87
2023-05-04T10:16:29.894Z,16.72
2023-05-04T10:19:23.737Z,16.77
2023-05-04T10:22:08.853Z,16.92
2023-05-04T10:25:07.467Z,16.95
2023-05-04T10:27:47.518Z,17.04
2023-05-04T10:30:20.412Z,17.06
2023-05-04T10:32:57.214Z,17.26
2023-05-04T10:35:26.899Z,17.37
2023-05-04T10:37:59.083Z,17.54
2023-05-04T10:40:41.019Z,17.58
2023-05-04T10:43:11.666Z,17.69
2023-05-04T10:45:41.938Z,17.82
2023-05-04T10:48:11.242Z,17.92
2023-05-04T10:50:44.696Z,18.04
2023-05-04T10:53:16.146Z,18.18
2023-05-04T10:55:47.716Z,18.36
2023-05-04T10:58:20.183Z,18.44
2023-05-04T11:00:51.752Z,18.40
2023-05-04T11:03:22.530Z,18.44
2023-05-04T11:05:55.145Z,18.55
2023-05-04T11:08:28.784Z,18.71
2023-05-04T11:11:06.676Z,18.85
2023-05-04T11:13:37.785Z,18.99
2023-05-04T11:16:06.807Z,19.09
2023-05-04T11:18:37.599Z,19.22
2023-05-04T11:21:06.888Z,19.37
2023-05-04T11:23:38.076Z,19.51
2023-05-04T11:26:09.363Z,19.65
2023-05-04T11:28:40.806Z,19.71
2023-05-04T11:31:16.167Z,19.52
2023-05-04T11:33:49.048Z,19.68
2023-05-04T11:36:18.579Z,19.83
2023-05-04T11:38:48.946Z,20.19
2023-05-04T11:41:17.518Z,20.29
2023-05-04T11:43:48.015Z,20.46
2023-05-04T11:46:17.500Z,20.36
2023-05-04T11:48:47.236Z,20.55
2023-05-04T11:51:15.989Z,20.89
2023-05-04T11:53:44.834Z,21.14
2023-05-04T11:56:15.043Z,21.11
2023-05-04T11:58:43.854Z,21.24
2023-05-04T12:01:12.652Z,21.37
2023-05-04T12:03:52.448Z,21.53
2023-05-04T12:06:33.753Z,21.78
2023-05-04T12:09:06.954Z,21.87
2023-05-04T12:11:38.613Z,21.83
2023-05-04T12:14:09.730Z,21.71
2023-05-04T12:16:39.326Z,21.70
2023-05-04T12:19:11.266Z,21.72
2023-05-04T12:21:52.553Z,21.67
2023-05-04T12:24:24.232Z,21.53
2023-05-04T12:26:54.511Z,21.30
2023-05-04T12:29:23.198Z,21.44
2023-05-04T12:31:52.030Z,21.64
2023-05-04T12:34:20.778Z,21.75
2023-05-04T12:36:52.288Z,21.77
2023-05-04T12:39:21.067Z,21.92
2023-05-04T12:41:49.779Z,22.04
2023-05-04T12:44:19.934Z,22.14
2023-05-04T12:46:48.644Z,22.27
2023-05-04T12:49:17.838Z,22.30
2023-05-04T12:51:47.198Z,21.94
2023-05-04T12:54:15.903Z,21.86
2023-05-04T12:56:44.712Z,21.87
2023-05-04T12:59:13.553Z,22.24
2023-05-04T13:01:43.917Z,22.50
2023-05-04T13:04:12.950Z,22.62
2023-05-04T13:06:42.567Z,22.73
2023-05-04T13:09:11.488Z,22.80
2023-05-04T13:11:40.259Z,22.97
2023-05-04T13:14:09.011Z,23.10
2023-05-04T13:16:37.786Z,23.11
2023-05-04T13:19:07.946Z,22.55
2023-05-04T13:21:36.826Z,22.73
2023-05-04T13:24:06.136Z,22.94
2023-05-04T13:26:34.885Z,22.44
2023-05-04T13:29:05.508Z,22.70
2023-05-04T13:31:34.268Z,22.85
2023-05-04T13:34:03.147Z,22.93
2023-05-04T13:36:33.382Z,22.92
2023-05-04T13:39:02.378Z,23.01
2023-05-04T13:41:31.953Z,23.09
2023-05-04T13:44:00.664Z,23.21
2023-05-04T13:46:29.724Z,23.16
2023-05-04T13:48:58.548Z,23.21
2023-05-04T13:51:27.285Z,23.24
2023-05-04T13:53:57.377Z,23.31
2023-05-04T13:56:26.301Z,23.33
2023-05-04T13:58:57.224Z,23.38
2023-05-04T14:01:26.198Z,23.48
2023-05-04T14:03:55.171Z,23.63
2023-05-04T14:06:24.156Z,23.80
2023-05-04T14:08:52.914Z,23.94
2023-05-04T14:11:23.622Z,24.01
2023-05-04T14:13:53.668Z,24.11
2023-05-04T14:16:25.259Z,24.12
2023-05-04T14:18:54.142Z,24.00
2023-05-04T14:21:22.962Z,23.90
2023-05-04T14:23:51.710Z,23.43
2023-05-04T14:26:20.418Z,23.14
2023-05-04T14:28:52.254Z,22.99
2023-05-04T14:31:21.170Z,22.81
2023-05-04T14:33:50.807Z,22.68
2023-05-04T14:36:19.610Z,22.72
2023-05-04T14:38:49.243Z,22.87
2023-05-04T14:41:17.988Z,23.04
2023-05-04T14:43:47.069Z,23.22
2023-05-04T14:46:17.204Z,23.28
2023-05-04T14:48:45.974Z,23.40
2023-05-04T14:51:14.955Z,23.45
2023-05-04T14:53:46.477Z,23.46
2023-05-04T14:56:16.184Z,23.46
2023-05-04T14:58:46.202Z,23.52
2023-05-04T15:01:16.461Z,23.42
2023-05-04T15:03:46.106Z,23.25
2023-05-04T15:06:30.698Z,23.08
2023-05-04T15:08:59.595Z,23.00
2023-05-04T15:11:28.488Z,22.81
2023-05-04T15:13:59.216Z,22.81
2023-05-04T15:16:32.431Z,22.83
2023-05-04T15:19:01.455Z,22.55
2023-05-04T15:21:30.272Z,22.58
2023-05-04T15:23:59.222Z,22.58
2023-05-04T15:26:29.291Z,22.56
2023-05-04T15:28:58.664Z,22.40
2023-05-04T15:31:30.273Z,22.27
2023-05-04T15:34:00.659Z,22.40
2023-05-04T15:36:30.656Z,21.68
2023-05-04T15:38:59.512Z,21.98
2023-05-04T15:41:28.596Z,22.02
2023-05-04T15:43:59.279Z,21.83
2023-05-04T15:46:29.630Z,21.42
2023-05-04T15:48:58.722Z,20.82
2023-05-04T15:51:29.164Z,21.08
2023-05-04T15:53:58.015Z,21.08
2023-05-04T15:56:26.911Z,20.61
2023-05-04T15:58:56.865Z,20.47
2023-05-04T16:01:25.629Z,20.36
2023-05-04T16:03:59.580Z,20.22
2023-05-04T16:06:31.294Z,20.53
2023-05-04T16:09:02.951Z,20.62
2023-05-04T16:11:33.159Z,20.67
2023-05-04T16:14:04.245Z,20.47
2023-05-04T16:16:34.268Z,19.97
2023-05-04T16:19:04.478Z,20.20
2023-05-04T16:21:33.354Z,20.46
2023-05-04T16:24:07.725Z,20.27
2023-05-04T16:26:36.603Z,19.86
2023-05-04T16:29:06.851Z,19.93
2023-05-04T16:31:35.663Z,19.76
2023-05-04T16:34:05.935Z,19.63
2023-05-04T16:36:34.845Z,19.35
2023-05-04T16:39:03.548Z,19.38
2023-05-04T16:41:32.813Z,19.55
2023-05-04T16:44:02.212Z,19.42
2023-05-04T16:46:31.153Z,19.31
2023-05-04T16:49:00.022Z,19.43
2023-05-04T16:51:30.379Z,19.46
2023-05-04T16:53:59.235Z,19.50
2023-05-04T16:56:29.939Z,19.64
2023-05-04T16:58:58.902Z,19.57
2023-05-04T17:01:27.978Z,19.37
2023-05-04T17:03:56.900Z,19.32
2023-05-04T17:06:26.872Z,19.18
2023-05-04T17:08:58.152Z,19.04
2023-05-04T17:11:28.697Z,19.01
2023-05-04T17:13:59.925Z,18.77
2023-05-04T17:16:29.729Z,18.71
2023-05-04T17:18:58.627Z,18.56
2023-05-04T17:21:27.625Z,18.41
2023-05-04T17:23:57.893Z,18.36
2023-05-04T17:26:28.185Z,18.34
2023-05-04T17:28:56.982Z,18.29
2023-05-04T17:31:26.034Z,18.18
2023-05-04T17:33:55.058Z,18.13
2023-05-04T17:36:23.823Z,18.04
2023-05-04T17:38:52.672Z,17.91
2023-05-04T17:41:24.801Z,17.87
2023-05-04T17:43:54.128Z,17.79
2023-05-04T17:46:23.331Z,17.66
2023-05-04T17:48:53.183Z,17.56
2023-05-04T17:51:24.001Z,17.43
2023-05-04T17:53:52.960Z,17.33
2023-05-04T17:56:23.122Z,17.21
2023-05-04T17:58:52.908Z,17.13
2023-05-04T18:01:21.894Z,17.02
2023-05-04T18:03:50.792Z,16.88
2023-05-04T18:06:19.708Z,16.80
2023-05-04T18:08:48.557Z,16.64
2023-05-04T18:11:17.462Z,16.51
2023-05-04T18:13:47.588Z,16.35
2023-05-04T18:16:16.448Z,16.25
2023-05-04T18:18:46.053Z,16.09
2023-05-04T18:21:15.321Z,15.75
2023-05-04T18:23:47.315Z,15.95
2023-05-04T18:26:23.306Z,15.90
2023-05-04T18:28:55.688Z,15.76
2023-05-04T18:31:27.928Z,15.67
2023-05-04T18:33:57.241Z,15.59
2023-05-04T18:36:26.189Z,15.50
2023-05-04T18:38:57.202Z,15.43
2023-05-04T18:41:26.945Z,15.43
2023-05-04T18:43:57.135Z,15.52
2023-05-04T18:46:26.020Z,15.39
2023-05-04T18:48:56.105Z,15.27
2023-05-04T18:51:27.890Z,15.18
2023-05-04T18:53:56.917Z,15.07
2023-05-04T18:56:25.903Z,15.08
2023-05-04T18:58:56.361Z,15.25
2023-05-04T19:01:25.133Z,15.14
2023-05-04T19:03:53.912Z,15.11
2023-05-04T19:06:22.713Z,15.08
2023-05-04T19:08:51.798Z,14.93
2023-05-04T19:11:20.696Z,14.93
2023-05-04T19:13:51.371Z,14.95
2023-05-04T19:16:22.003Z,14.89
2023-05-04T19:18:51.327Z,14.83
2023-05-04T19:21:20.249Z,14.83
2023-05-04T19:23:48.976Z,14.84
2023-05-04T19:26:17.820Z,14.82
2023-05-04T19:29:00.816Z,14.71
2023-05-04T19:31:31.225Z,14.75
2023-05-04T19:34:00.435Z,14.72
2023-05-04T19:36:29.210Z,14.60
2023-05-04T19:38:57.944Z,14.50
2023-05-04T19:41:26.698Z,14.54
2023-05-04T19:43:55.722Z,14.51
2023-05-04T19:46:24.679Z,14.44
2023-05-04T19:48:55.048Z,14.35
2023-05-04T19:51:24.158Z,14.22
2023-05-04T19:53:53.094Z,14.15
2023-05-04T19:56:22.095Z,14.05
2023-05-04T19:58:55.894Z,14.00
2023-05-04T20:01:28.109Z,13.97
2023-05-04T20:04:32.266Z,13.91
2023-05-04T20:07:01.056Z,13.79
2023-05-04T20:09:30.252Z,13.73
2023-05-04T20:12:00.202Z,13.64
2023-05-04T20:14:28.962Z,13.56
2023-05-04T20:16:58.282Z,13.48
2023-05-04T20:19:28.458Z,13.40
2023-05-04T20:21:57.427Z,13.30
2023-05-04T20:24:26.735Z,13.25
2023-05-04T20:26:55.505Z,13.19
2023-05-04T20:29:24.423Z,13.12
2023-05-04T20:31:53.775Z,13.10
2023-05-04T20:34:22.496Z,13.02
2023-05-04T20:36:52.624Z,12.95
2023-05-04T20:39:21.581Z,12.91
2023-05-04T20:41:50.880Z,12.94
2023-05-04T20:44:20.021Z,12.96
2023-05-04T20:46:48.965Z,12.99
2023-05-04T20:49:17.841Z,13.03
2023-05-04T20:51:47.385Z,13.00
2023-05-04T20:54:17.693Z,12.88
2023-05-04T20:56:46.433Z,12.75
2023-05-04T20:59:15.182Z,12.62
2023-05-04T21:01:43.997Z,12.49
2023-05-04T21:04:13.762Z,12.40
2023-05-04T21:06:42.813Z,12.38
2023-05-04T21:09:11.642Z,12.31
2023-05-04T21:11:41.938Z,12.25
2023-05-04T21:14:10.934Z,12.20
2023-05-04T21:16:39.703Z,12.17
2023-05-04T21:19:08.490Z,12.10
2023-05-04T21:21:40.804Z,12.05
2023-05-04T21:24:13.332Z,12.03
2023-05-04T21:26:43.678Z,12.01
2023-05-04T21:29:13.104Z,12.03
2023-05-04T21:31:42.298Z,12.02
2023-05-04T21:34:11.384Z,12.01
2023-05-04T21:36:40.446Z,11.98
2023-05-04T21:39:09.322Z,11.95
2023-05-04T21:41:38.885Z,11.92
2023-05-04T21:44:09.128Z,11.89
2023-05-04T21:46:37.912Z,11.85
2023-05-04T21:49:07.375Z,11.83
2023-05-04T21:51:36.143Z,11.80
2023-05-04T21:54:04.971Z,11.81
2023-05-04T21:56:33.801Z,11.81
2023-05-04T21:59:03.067Z,11.83
2023-05-04T22:01:33.240Z,11.83
2023-05-04T22:04:01.998Z,11.81
2023-05-04T22:06:30.777Z,11.75
2023-05-04T22:08:59.492Z,11.68
2023-05-04T22:11:28.292Z,11.77
2023-05-04T22:13:57.006Z,11.86
2023-05-04T22:16:25.957Z,11.92
2023-05-04T22:18:56.121Z,11.92
2023-05-04T22:21:24.924Z,11.90
2023-05-04T22:23:53.744Z,11.83
2023-05-04T22:26:22.536Z,11.81
2023-05-04T22:28:51.592Z,11.93
2023-05-04T22:31:21.122Z,11.98
2023-05-04T22:33:49.868Z,11.95
2023-05-04T22:36:19.980Z,11.88
2023-05-04T22:38:48.830Z,11.82
2023-05-04T22:41:17.570Z,11.76
2023-05-04T22:43:46.437Z,11.72
2023-05-04T22:46:18.421Z,11.63
2023-05-04T22:48:47.962Z,11.62
2023-05-04T22:51:17.104Z,11.60
2023-05-04T22:53:47.293Z,11.52
2023-05-04T22:56:16.030Z,11.54
2023-05-04T22:58:47.058Z,11.40
2023-05-04T23:01:15.975Z,11.28
2023-05-04T23:03:45.218Z,11.26
2023-05-04T23:06:15.228Z,11.13
2023-05-04T23:08:45.382Z,11.05
2023-05-04T23:11:15.545Z,10.96
2023-05-04T23:13:44.301Z,10.91
2023-05-04T23:16:13.150Z,10.91
2023-05-04T23:18:41.934Z,10.95
2023-05-04T23:21:10.926Z,10.85
2023-05-04T23:23:39.734Z,10.76
2023-05-04T23:26:08.792Z,10.66
2023-05-04T23:28:38.979Z,10.65
2023-05-04T23:31:09.717Z,10.66
2023-05-04T23:33:38.578Z,10.65
2023-05-04T23:36:07.634Z,10.65
2023-05-04T23:38:36.481Z,10.60
2023-05-04T23:41:05.361Z,10.59
2023-05-04T23:43:34.108Z,10.56
2023-05-04T23:46:06.175Z,10.56
2023-05-04T23:48:35.081Z,10.55
2023-05-04T23:51:04.776Z,10.56
2023-05-04T23:53:33.769Z,10.59
2023-05-04T23:56:04.345Z,10.51
2023-05-04T23:58:33.734Z,10.38
